sensor_id;sensor_type;location;lat;lon;timestamp;P1;durP1;ratioP1;P2;durP2;ratioP2
7263;SDS011;3673;52.480;13.348;2023-01-06T00:02:18;7.63;;;2.60;;
7263;SDS011;3673;52.480;13.348;2023-01-06T00:04:44;7.88;;;2.78;;
7263;SDS011;3673;52.480;13.348;2023-01-06T00:07:11;5.95;;;2.47;;
7263;SDS011;3673;52.480;13.348;2023-01-06T00:09:38;10.20;;;2.97;;
7263;SDS011;3673;52.480;13.348;2023-01-06T00:12:05;7.65;;;2.28;;
7263;SDS011;3673;52.480;13.348;2023-01-06T00:14:33;3.83;;;1.63;;
7263;SDS011;3673;52.480;13.348;2023-01-06T00:16:59;4.15;;;1.98;;
7263;SDS011;3673;52.480;13.348;2023-01-06T00:19:27;5.18;;;1.70;;
7263;SDS011;3673;52.480;13.348;2023-01-06T00:21:54;3.95;;;1.70;;
7263;SDS011;3673;52.480;13.348;2023-01-06T00:24:21;6.38;;;2.08;;
7263;SDS011;3673;52.480;13.348;2023-01-06T00:26:47;4.05;;;1.95;;
7263;SDS011;3673;52.480;13.348;2023-01-06T00:29:14;7.25;;;2.50;;
7263;SDS011;3673;52.480;13.348;2023-01-06T00:31:41;5.63;;;2.13;;
7263;SDS011;3673;52.480;13.348;2023-01-06T00:34:08;8.25;;;2.20;;
7263;SDS011;3673;52.480;13.348;2023-01-06T00:36:37;15.10;;;4.90;;
7263;SDS011;3673;52.480;13.348;2023-01-06T00:39:03;6.80;;;2.67;;
7263;SDS011;3673;52.480;13.348;2023-01-06T00:41:30;8.13;;;3.03;;
7263;SDS011;3673;52.480;13.348;2023-01-06T00:44:15;5.00;;;2.78;;
7263;SDS011;3673;52.480;13.348;2023-01-06T00:46:41;9.98;;;4.03;;
7263;SDS011;3673;52.480;13.348;2023-01-06T00:49:08;13.45;;;5.25;;
7263;SDS011;3673;52.480;13.348;2023-01-06T00:51:37;7.25;;;2.80;;
7263;SDS011;3673;52.480;13.348;2023-01-06T00:54:05;6.68;;;2.97;;
7263;SDS011;3673;52.480;13.348;2023-01-06T00:56:34;6.32;;;2.38;;
7263;SDS011;3673;52.480;13.348;2023-01-06T00:59:02;4.70;;;2.60;;
7263;SDS011;3673;52.480;13.348;2023-01-06T01:01:29;6.45;;;2.50;;
7263;SDS011;3673;52.480;13.348;2023-01-06T01:03:56;8.55;;;3.08;;
7263;SDS011;3673;52.480;13.348;2023-01-06T01:06:23;4.95;;;2.28;;
7263;SDS011;3673;52.480;13.348;2023-01-06T01:08:53;7.05;;;3.45;;
7263;SDS011;3673;52.480;13.348;2023-01-06T01:11:20;9.07;;;3.67;;
7263;SDS011;3673;52.480;13.348;2023-01-06T01:14:05;7.68;;;3.47;;
7263;SDS011;3673;52.480;13.348;2023-01-06T01:16:33;4.93;;;2.47;;
7263;SDS011;3673;52.480;13.348;2023-01-06T01:18:59;9.45;;;3.38;;
7263;SDS011;3673;52.480;13.348;2023-01-06T01:21:27;6.38;;;2.53;;
7263;SDS011;3673;52.480;13.348;2023-01-06T01:23:55;6.97;;;2.83;;
7263;SDS011;3673;52.480;13.348;2023-01-06T01:26:22;6.25;;;2.75;;
7263;SDS011;3673;52.480;13.348;2023-01-06T01:28:48;4.70;;;2.10;;
7263;SDS011;3673;52.480;13.348;2023-01-06T01:31:15;7.43;;;2.38;;
7263;SDS011;3673;52.480;13.348;2023-01-06T01:33:42;9.07;;;2.92;;
7263;SDS011;3673;52.480;13.348;2023-01-06T01:36:10;5.88;;;2.83;;
7263;SDS011;3673;52.480;13.348;2023-01-06T01:38:39;7.38;;;2.33;;
7263;SDS011;3673;52.480;13.348;2023-01-06T01:41:07;8.05;;;2.17;;
7263;SDS011;3673;52.480;13.348;2023-01-06T01:43:41;3.40;;;2.15;;
7263;SDS011;3673;52.480;13.348;2023-01-06T01:46:10;5.72;;;2.10;;
7263;SDS011;3673;52.480;13.348;2023-01-06T01:48:42;6.45;;;1.95;;
7263;SDS011;3673;52.480;13.348;2023-01-06T01:51:11;3.28;;;1.70;;
7263;SDS011;3673;52.480;13.348;2023-01-06T01:53:47;9.15;;;2.00;;
7263;SDS011;3673;52.480;13.348;2023-01-06T01:56:21;7.90;;;2.55;;
7263;SDS011;3673;52.480;13.348;2023-01-06T01:58:59;4.22;;;1.40;;
7263;SDS011;3673;52.480;13.348;2023-01-06T02:01:31;4.32;;;1.90;;
7263;SDS011;3673;52.480;13.348;2023-01-06T02:03:59;3.25;;;1.40;;
7263;SDS011;3673;52.480;13.348;2023-01-06T02:06:26;6.00;;;1.40;;
7263;SDS011;3673;52.480;13.348;2023-01-06T02:08:56;4.20;;;1.20;;
7263;SDS011;3673;52.480;13.348;2023-01-06T02:11:30;5.03;;;1.60;;
7263;SDS011;3673;52.480;13.348;2023-01-06T02:14:02;2.85;;;1.50;;
7263;SDS011;3673;52.480;13.348;2023-01-06T02:16:38;3.50;;;1.42;;
7263;SDS011;3673;52.480;13.348;2023-01-06T02:19:28;5.35;;;1.08;;
7263;SDS011;3673;52.480;13.348;2023-01-06T02:22:34;3.63;;;1.38;;
7263;SDS011;3673;52.480;13.348;2023-01-06T02:25:44;6.57;;;1.63;;
7263;SDS011;3673;52.480;13.348;2023-01-06T02:28:53;5.90;;;1.85;;
7263;SDS011;3673;52.480;13.348;2023-01-06T02:31:57;6.03;;;2.13;;
7263;SDS011;3673;52.480;13.348;2023-01-06T02:34:30;4.40;;;1.58;;
7263;SDS011;3673;52.480;13.348;2023-01-06T02:37:13;3.65;;;1.50;;
7263;SDS011;3673;52.480;13.348;2023-01-06T02:39:57;3.28;;;1.30;;
7263;SDS011;3673;52.480;13.348;2023-01-06T02:42:43;5.05;;;1.38;;
7263;SDS011;3673;52.480;13.348;2023-01-06T02:45:22;3.38;;;1.30;;
7263;SDS011;3673;52.480;13.348;2023-01-06T02:48:02;4.85;;;1.60;;
7263;SDS011;3673;52.480;13.348;2023-01-06T02:50:36;3.63;;;1.55;;
7263;SDS011;3673;52.480;13.348;2023-01-06T02:53:07;6.15;;;1.52;;
7263;SDS011;3673;52.480;13.348;2023-01-06T02:55:43;5.00;;;1.92;;
7263;SDS011;3673;52.480;13.348;2023-01-06T02:58:14;4.70;;;1.65;;
7263;SDS011;3673;52.480;13.348;2023-01-06T03:00:51;4.53;;;1.17;;
7263;SDS011;3673;52.480;13.348;2023-01-06T03:03:27;3.33;;;1.27;;
7263;SDS011;3673;52.480;13.348;2023-01-06T03:06:02;9.85;;;1.63;;
7263;SDS011;3673;52.480;13.348;2023-01-06T03:08:32;4.80;;;1.95;;
7263;SDS011;3673;52.480;13.348;2023-01-06T03:11:01;4.70;;;1.65;;
7263;SDS011;3673;52.480;13.348;2023-01-06T03:13:32;4.03;;;1.25;;
7263;SDS011;3673;52.480;13.348;2023-01-06T03:16:04;3.25;;;1.30;;
7263;SDS011;3673;52.480;13.348;2023-01-06T03:18:33;3.92;;;1.10;;
7263;SDS011;3673;52.480;13.348;2023-01-06T03:21:03;8.88;;;2.05;;
7263;SDS011;3673;52.480;13.348;2023-01-06T03:23:36;4.97;;;1.45;;
7263;SDS011;3673;52.480;13.348;2023-01-06T03:26:04;5.43;;;1.35;;
7263;SDS011;3673;52.480;13.348;2023-01-06T03:28:31;3.00;;;1.10;;
7263;SDS011;3673;52.480;13.348;2023-01-06T03:30:59;2.38;;;1.00;;
7263;SDS011;3673;52.480;13.348;2023-01-06T03:33:40;6.68;;;1.38;;
7263;SDS011;3673;52.480;13.348;2023-01-06T03:36:19;2.25;;;1.17;;
7263;SDS011;3673;52.480;13.348;2023-01-06T03:38:55;4.70;;;1.20;;
7263;SDS011;3673;52.480;13.348;2023-01-06T03:41:34;4.28;;;1.02;;
7263;SDS011;3673;52.480;13.348;2023-01-06T03:44:25;4.80;;;1.00;;
7263;SDS011;3673;52.480;13.348;2023-01-06T03:47:01;5.50;;;1.23;;
7263;SDS011;3673;52.480;13.348;2023-01-06T03:49:40;3.53;;;1.00;;
7263;SDS011;3673;52.480;13.348;2023-01-06T03:52:17;2.70;;;1.20;;
7263;SDS011;3673;52.480;13.348;2023-01-06T03:54:53;1.95;;;1.15;;
7263;SDS011;3673;52.480;13.348;2023-01-06T03:57:26;4.82;;;1.30;;
7263;SDS011;3673;52.480;13.348;2023-01-06T03:59:59;3.72;;;1.27;;
7263;SDS011;3673;52.480;13.348;2023-01-06T04:02:31;8.88;;;1.15;;
7263;SDS011;3673;52.480;13.348;2023-01-06T04:05:01;3.10;;;1.15;;
7263;SDS011;3673;52.480;13.348;2023-01-06T04:07:31;4.85;;;1.33;;
7263;SDS011;3673;52.480;13.348;2023-01-06T04:09:58;3.75;;;1.02;;
7263;SDS011;3673;52.480;13.348;2023-01-06T04:12:25;2.97;;;1.13;;
7263;SDS011;3673;52.480;13.348;2023-01-06T04:15:03;3.90;;;1.10;;
7263;SDS011;3673;52.480;13.348;2023-01-06T04:17:31;3.35;;;1.38;;
7263;SDS011;3673;52.480;13.348;2023-01-06T04:19:58;3.80;;;1.10;;
7263;SDS011;3673;52.480;13.348;2023-01-06T04:22:26;8.98;;;1.63;;
7263;SDS011;3673;52.480;13.348;2023-01-06T04:24:53;6.10;;;1.10;;
7263;SDS011;3673;52.480;13.348;2023-01-06T04:27:20;2.88;;;1.20;;
7263;SDS011;3673;52.480;13.348;2023-01-06T04:29:46;2.85;;;1.17;;
7263;SDS011;3673;52.480;13.348;2023-01-06T04:32:13;2.58;;;1.27;;
7263;SDS011;3673;52.480;13.348;2023-01-06T04:34:40;7.68;;;4.07;;
7263;SDS011;3673;52.480;13.348;2023-01-06T04:37:07;8.05;;;1.55;;
7263;SDS011;3673;52.480;13.348;2023-01-06T04:39:35;2.67;;;1.15;;
7263;SDS011;3673;52.480;13.348;2023-01-06T04:42:01;6.32;;;1.50;;
7263;SDS011;3673;52.480;13.348;2023-01-06T04:44:28;3.75;;;1.23;;
7263;SDS011;3673;52.480;13.348;2023-01-06T04:46:55;3.40;;;1.38;;
7263;SDS011;3673;52.480;13.348;2023-01-06T04:49:22;3.25;;;2.10;;
7263;SDS011;3673;52.480;13.348;2023-01-06T04:51:48;2.47;;;1.13;;
7263;SDS011;3673;52.480;13.348;2023-01-06T04:54:15;4.45;;;1.67;;
7263;SDS011;3673;52.480;13.348;2023-01-06T04:56:43;4.82;;;1.35;;
7263;SDS011;3673;52.480;13.348;2023-01-06T04:59:10;4.70;;;1.63;;
7263;SDS011;3673;52.480;13.348;2023-01-06T05:01:37;4.35;;;1.27;;
7263;SDS011;3673;52.480;13.348;2023-01-06T05:04:04;5.82;;;1.40;;
7263;SDS011;3673;52.480;13.348;2023-01-06T05:06:31;5.80;;;1.55;;
7263;SDS011;3673;52.480;13.348;2023-01-06T05:08:58;7.50;;;1.50;;
7263;SDS011;3673;52.480;13.348;2023-01-06T05:11:24;5.22;;;1.60;;
7263;SDS011;3673;52.480;13.348;2023-01-06T05:13:53;1.55;;;1.20;;
7263;SDS011;3673;52.480;13.348;2023-01-06T05:16:22;5.65;;;1.50;;
7263;SDS011;3673;52.480;13.348;2023-01-06T05:18:51;3.95;;;1.30;;
7263;SDS011;3673;52.480;13.348;2023-01-06T05:21:18;1.98;;;1.23;;
7263;SDS011;3673;52.480;13.348;2023-01-06T05:23:45;4.55;;;1.55;;
7263;SDS011;3673;52.480;13.348;2023-01-06T05:26:14;8.43;;;1.55;;
7263;SDS011;3673;52.480;13.348;2023-01-06T05:28:43;6.28;;;1.55;;
7263;SDS011;3673;52.480;13.348;2023-01-06T05:31:12;5.55;;;1.77;;
7263;SDS011;3673;52.480;13.348;2023-01-06T05:33:39;7.75;;;2.10;;
7263;SDS011;3673;52.480;13.348;2023-01-06T05:36:07;8.98;;;2.08;;
7263;SDS011;3673;52.480;13.348;2023-01-06T05:38:36;2.92;;;1.58;;
7263;SDS011;3673;52.480;13.348;2023-01-06T05:41:03;5.25;;;1.98;;
7263;SDS011;3673;52.480;13.348;2023-01-06T05:43:31;8.93;;;1.92;;
7263;SDS011;3673;52.480;13.348;2023-01-06T05:46:03;4.80;;;1.60;;
7263;SDS011;3673;52.480;13.348;2023-01-06T05:48:33;4.32;;;1.48;;
7263;SDS011;3673;52.480;13.348;2023-01-06T05:51:00;6.15;;;2.40;;
7263;SDS011;3673;52.480;13.348;2023-01-06T05:53:29;5.93;;;2.30;;
7263;SDS011;3673;52.480;13.348;2023-01-06T05:55:58;3.63;;;1.77;;
7263;SDS011;3673;52.480;13.348;2023-01-06T05:58:26;5.70;;;2.35;;
7263;SDS011;3673;52.480;13.348;2023-01-06T06:00:53;4.57;;;2.10;;
7263;SDS011;3673;52.480;13.348;2023-01-06T06:03:19;4.65;;;2.53;;
7263;SDS011;3673;52.480;13.348;2023-01-06T06:05:48;7.70;;;2.25;;
7263;SDS011;3673;52.480;13.348;2023-01-06T06:08:14;5.35;;;2.20;;
7263;SDS011;3673;52.480;13.348;2023-01-06T06:10:41;17.20;;;6.72;;
7263;SDS011;3673;52.480;13.348;2023-01-06T06:13:08;11.02;;;4.75;;
7263;SDS011;3673;52.480;13.348;2023-01-06T06:15:35;9.50;;;2.60;;
7263;SDS011;3673;52.480;13.348;2023-01-06T06:18:01;4.10;;;2.33;;
7263;SDS011;3673;52.480;13.348;2023-01-06T06:20:29;7.20;;;2.67;;
7263;SDS011;3673;52.480;13.348;2023-01-06T06:22:57;9.18;;;3.10;;
7263;SDS011;3673;52.480;13.348;2023-01-06T06:25:24;6.63;;;2.90;;
7263;SDS011;3673;52.480;13.348;2023-01-06T06:27:50;7.82;;;3.35;;
7263;SDS011;3673;52.480;13.348;2023-01-06T06:30:21;12.63;;;3.00;;
7263;SDS011;3673;52.480;13.348;2023-01-06T06:32:48;7.85;;;3.75;;
7263;SDS011;3673;52.480;13.348;2023-01-06T06:35:15;10.55;;;2.90;;
7263;SDS011;3673;52.480;13.348;2023-01-06T06:37:42;11.35;;;2.92;;
7263;SDS011;3673;52.480;13.348;2023-01-06T06:40:11;5.05;;;2.20;;
7263;SDS011;3673;52.480;13.348;2023-01-06T06:42:37;10.52;;;3.60;;
7263;SDS011;3673;52.480;13.348;2023-01-06T06:45:05;10.30;;;2.85;;
7263;SDS011;3673;52.480;13.348;2023-01-06T06:47:33;7.47;;;3.08;;
7263;SDS011;3673;52.480;13.348;2023-01-06T06:49:59;14.13;;;3.13;;
7263;SDS011;3673;52.480;13.348;2023-01-06T06:52:26;11.70;;;3.03;;
7263;SDS011;3673;52.480;13.348;2023-01-06T06:54:53;7.05;;;3.25;;
7263;SDS011;3673;52.480;13.348;2023-01-06T06:57:21;7.35;;;3.08;;
7263;SDS011;3673;52.480;13.348;2023-01-06T06:59:47;5.10;;;2.65;;
7263;SDS011;3673;52.480;13.348;2023-01-06T07:02:14;11.25;;;3.33;;
7263;SDS011;3673;52.480;13.348;2023-01-06T07:04:41;5.95;;;3.55;;
7263;SDS011;3673;52.480;13.348;2023-01-06T07:07:08;11.75;;;3.65;;
7263;SDS011;3673;52.480;13.348;2023-01-06T07:09:35;10.65;;;3.40;;
7263;SDS011;3673;52.480;13.348;2023-01-06T07:12:01;7.03;;;3.47;;
7263;SDS011;3673;52.480;13.348;2023-01-06T07:14:30;7.97;;;3.17;;
7263;SDS011;3673;52.480;13.348;2023-01-06T07:16:58;10.23;;;4.97;;
7263;SDS011;3673;52.480;13.348;2023-01-06T07:19:25;8.35;;;4.03;;
7263;SDS011;3673;52.480;13.348;2023-01-06T07:21:52;11.40;;;3.97;;
7263;SDS011;3673;52.480;13.348;2023-01-06T07:24:19;7.28;;;4.13;;
7263;SDS011;3673;52.480;13.348;2023-01-06T07:26:46;7.03;;;4.65;;
7263;SDS011;3673;52.480;13.348;2023-01-06T07:29:13;7.13;;;4.38;;
7263;SDS011;3673;52.480;13.348;2023-01-06T07:31:41;7.47;;;4.40;;
7263;SDS011;3673;52.480;13.348;2023-01-06T07:34:08;9.27;;;4.72;;
7263;SDS011;3673;52.480;13.348;2023-01-06T07:36:35;14.60;;;5.15;;
7263;SDS011;3673;52.480;13.348;2023-01-06T07:39:02;11.45;;;5.43;;
7263;SDS011;3673;52.480;13.348;2023-01-06T07:41:29;8.90;;;5.10;;
7263;SDS011;3673;52.480;13.348;2023-01-06T07:43:56;12.98;;;4.95;;
7263;SDS011;3673;52.480;13.348;2023-01-06T07:46:23;15.40;;;5.20;;
7263;SDS011;3673;52.480;13.348;2023-01-06T07:48:51;8.32;;;6.00;;
7263;SDS011;3673;52.480;13.348;2023-01-06T07:51:18;7.03;;;5.03;;
7263;SDS011;3673;52.480;13.348;2023-01-06T07:53:45;13.90;;;5.85;;
7263;SDS011;3673;52.480;13.348;2023-01-06T07:56:11;16.05;;;6.85;;
7263;SDS011;3673;52.480;13.348;2023-01-06T07:58:38;8.90;;;5.57;;
7263;SDS011;3673;52.480;13.348;2023-01-06T08:01:05;10.77;;;6.07;;
7263;SDS011;3673;52.480;13.348;2023-01-06T08:03:33;10.07;;;5.25;;
7263;SDS011;3673;52.480;13.348;2023-01-06T08:06:05;9.07;;;5.60;;
7263;SDS011;3673;52.480;13.348;2023-01-06T08:08:34;11.93;;;5.28;;
7263;SDS011;3673;52.480;13.348;2023-01-06T08:11:02;10.98;;;5.85;;
7263;SDS011;3673;52.480;13.348;2023-01-06T08:13:29;9.60;;;5.30;;
7263;SDS011;3673;52.480;13.348;2023-01-06T08:15:56;12.05;;;5.97;;
7263;SDS011;3673;52.480;13.348;2023-01-06T08:18:23;7.15;;;5.75;;
7263;SDS011;3673;52.480;13.348;2023-01-06T08:20:50;13.55;;;6.55;;
7263;SDS011;3673;52.480;13.348;2023-01-06T08:23:18;16.30;;;6.80;;
7263;SDS011;3673;52.480;13.348;2023-01-06T08:25:44;12.88;;;6.15;;
7263;SDS011;3673;52.480;13.348;2023-01-06T08:28:11;13.57;;;6.85;;
7263;SDS011;3673;52.480;13.348;2023-01-06T08:30:38;13.07;;;6.75;;
7263;SDS011;3673;52.480;13.348;2023-01-06T08:33:07;11.38;;;6.70;;
7263;SDS011;3673;52.480;13.348;2023-01-06T08:35:34;11.27;;;6.97;;
7263;SDS011;3673;52.480;13.348;2023-01-06T08:38:00;12.20;;;6.88;;
7263;SDS011;3673;52.480;13.348;2023-01-06T08:40:28;16.80;;;9.55;;
7263;SDS011;3673;52.480;13.348;2023-01-06T08:42:55;10.57;;;6.57;;
7263;SDS011;3673;52.480;13.348;2023-01-06T08:45:22;8.48;;;6.50;;
7263;SDS011;3673;52.480;13.348;2023-01-06T08:47:48;14.32;;;7.97;;
7263;SDS011;3673;52.480;13.348;2023-01-06T08:50:15;11.90;;;6.82;;
7263;SDS011;3673;52.480;13.348;2023-01-06T08:52:42;14.13;;;7.95;;
7263;SDS011;3673;52.480;13.348;2023-01-06T08:55:09;10.48;;;6.50;;
7263;SDS011;3673;52.480;13.348;2023-01-06T08:57:37;14.32;;;6.72;;
7263;SDS011;3673;52.480;13.348;2023-01-06T09:00:04;12.15;;;6.88;;
7263;SDS011;3673;52.480;13.348;2023-01-06T09:02:33;9.45;;;6.78;;
7263;SDS011;3673;52.480;13.348;2023-01-06T09:04:59;13.50;;;7.68;;
7263;SDS011;3673;52.480;13.348;2023-01-06T09:07:26;11.38;;;6.72;;
7263;SDS011;3673;52.480;13.348;2023-01-06T09:09:53;11.88;;;6.90;;
7263;SDS011;3673;52.480;13.348;2023-01-06T09:12:20;12.30;;;7.90;;
7263;SDS011;3673;52.480;13.348;2023-01-06T09:14:48;17.70;;;8.27;;
7263;SDS011;3673;52.480;13.348;2023-01-06T09:17:15;20.65;;;8.27;;
7263;SDS011;3673;52.480;13.348;2023-01-06T09:19:41;18.95;;;8.70;;
7263;SDS011;3673;52.480;13.348;2023-01-06T09:22:08;20.35;;;10.07;;
7263;SDS011;3673;52.480;13.348;2023-01-06T09:24:35;16.88;;;8.85;;
7263;SDS011;3673;52.480;13.348;2023-01-06T09:27:01;21.60;;;9.40;;
7263;SDS011;3673;52.480;13.348;2023-01-06T09:29:28;18.73;;;9.88;;
7263;SDS011;3673;52.480;13.348;2023-01-06T09:31:56;21.90;;;10.88;;
7263;SDS011;3673;52.480;13.348;2023-01-06T09:34:23;20.02;;;10.63;;
7263;SDS011;3673;52.480;13.348;2023-01-06T09:36:50;18.58;;;9.73;;
7263;SDS011;3673;52.480;13.348;2023-01-06T09:39:16;15.20;;;9.85;;
7263;SDS011;3673;52.480;13.348;2023-01-06T09:41:50;19.70;;;10.32;;
7263;SDS011;3673;52.480;13.348;2023-01-06T09:44:35;29.25;;;16.98;;
7263;SDS011;3673;52.480;13.348;2023-01-06T09:47:12;15.07;;;9.73;;
7263;SDS011;3673;52.480;13.348;2023-01-06T09:49:45;25.70;;;10.80;;
7263;SDS011;3673;52.480;13.348;2023-01-06T09:52:18;18.00;;;10.25;;
7263;SDS011;3673;52.480;13.348;2023-01-06T09:54:53;19.70;;;9.95;;
7263;SDS011;3673;52.480;13.348;2023-01-06T09:57:25;18.30;;;9.38;;
7263;SDS011;3673;52.480;13.348;2023-01-06T09:59:57;17.45;;;12.90;;
7263;SDS011;3673;52.480;13.348;2023-01-06T10:02:29;14.57;;;10.30;;
7263;SDS011;3673;52.480;13.348;2023-01-06T10:05:01;17.50;;;10.50;;
7263;SDS011;3673;52.480;13.348;2023-01-06T10:07:29;16.33;;;9.93;;
7263;SDS011;3673;52.480;13.348;2023-01-06T10:10:09;17.70;;;9.88;;
7263;SDS011;3673;52.480;13.348;2023-01-06T10:12:50;16.42;;;9.55;;
7263;SDS011;3673;52.480;13.348;2023-01-06T10:15:30;14.93;;;9.32;;
7263;SDS011;3673;52.480;13.348;2023-01-06T10:20:52;14.15;;;8.70;;
7263;SDS011;3673;52.480;13.348;2023-01-06T10:23:35;17.58;;;8.98;;
7263;SDS011;3673;52.480;13.348;2023-01-06T10:26:39;13.82;;;8.00;;
7263;SDS011;3673;52.480;13.348;2023-01-06T10:29:11;15.75;;;10.48;;
7263;SDS011;3673;52.480;13.348;2023-01-06T10:31:42;15.70;;;10.38;;
7263;SDS011;3673;52.480;13.348;2023-01-06T10:34:15;18.48;;;11.93;;
7263;SDS011;3673;52.480;13.348;2023-01-06T10:36:47;14.40;;;9.10;;
7263;SDS011;3673;52.480;13.348;2023-01-06T10:39:21;14.95;;;9.57;;
7263;SDS011;3673;52.480;13.348;2023-01-06T10:41:54;23.35;;;11.32;;
7263;SDS011;3673;52.480;13.348;2023-01-06T10:44:48;16.90;;;10.10;;
7263;SDS011;3673;52.480;13.348;2023-01-06T10:47:17;16.90;;;12.13;;
7263;SDS011;3673;52.480;13.348;2023-01-06T10:49:51;19.08;;;10.77;;
7263;SDS011;3673;52.480;13.348;2023-01-06T10:52:18;20.13;;;11.88;;
7263;SDS011;3673;52.480;13.348;2023-01-06T10:54:47;16.92;;;10.93;;
7263;SDS011;3673;52.480;13.348;2023-01-06T10:57:19;17.25;;;10.00;;
7263;SDS011;3673;52.480;13.348;2023-01-06T11:00:06;19.77;;;11.38;;
7263;SDS011;3673;52.480;13.348;2023-01-06T11:02:46;24.27;;;13.25;;
7263;SDS011;3673;52.480;13.348;2023-01-06T11:05:17;22.88;;;14.52;;
7263;SDS011;3673;52.480;13.348;2023-01-06T11:07:48;22.77;;;15.07;;
7263;SDS011;3673;52.480;13.348;2023-01-06T11:10:25;18.17;;;11.50;;
7263;SDS011;3673;52.480;13.348;2023-01-06T11:12:57;14.88;;;11.88;;
7263;SDS011;3673;52.480;13.348;2023-01-06T11:15:34;18.95;;;13.75;;
7263;SDS011;3673;52.480;13.348;2023-01-06T11:18:05;111.50;;;47.45;;
7263;SDS011;3673;52.480;13.348;2023-01-06T11:20:48;77.63;;;44.78;;
7263;SDS011;3673;52.480;13.348;2023-01-06T11:23:32;46.43;;;26.00;;
7263;SDS011;3673;52.480;13.348;2023-01-06T11:26:04;43.03;;;27.20;;
7263;SDS011;3673;52.480;13.348;2023-01-06T11:28:39;68.45;;;37.92;;
7263;SDS011;3673;52.480;13.348;2023-01-06T11:31:07;22.13;;;15.93;;
7263;SDS011;3673;52.480;13.348;2023-01-06T11:33:45;18.65;;;13.15;;
7263;SDS011;3673;52.480;13.348;2023-01-06T11:36:17;18.55;;;13.90;;
7263;SDS011;3673;52.480;13.348;2023-01-06T11:38:46;11.18;;;8.65;;
7263;SDS011;3673;52.480;13.348;2023-01-06T11:41:20;13.13;;;8.90;;
7263;SDS011;3673;52.480;13.348;2023-01-06T11:43:54;12.52;;;9.00;;
7263;SDS011;3673;52.480;13.348;2023-01-06T11:46:30;13.65;;;9.82;;
7263;SDS011;3673;52.480;13.348;2023-01-06T11:48:59;17.77;;;12.05;;
7263;SDS011;3673;52.480;13.348;2023-01-06T11:51:30;17.67;;;10.73;;
7263;SDS011;3673;52.480;13.348;2023-01-06T11:54:20;16.38;;;9.23;;
7263;SDS011;3673;52.480;13.348;2023-01-06T11:57:01;14.98;;;8.90;;
7263;SDS011;3673;52.480;13.348;2023-01-06T11:59:44;13.60;;;8.85;;
7263;SDS011;3673;52.480;13.348;2023-01-06T12:02:30;14.88;;;9.13;;
7263;SDS011;3673;52.480;13.348;2023-01-06T12:05:06;15.55;;;8.68;;
7263;SDS011;3673;52.480;13.348;2023-01-06T12:07:46;13.45;;;9.10;;
7263;SDS011;3673;52.480;13.348;2023-01-06T12:10:18;15.23;;;10.05;;
7263;SDS011;3673;52.480;13.348;2023-01-06T12:12:49;12.63;;;9.27;;
7263;SDS011;3673;52.480;13.348;2023-01-06T12:15:17;15.65;;;9.05;;
7263;SDS011;3673;52.480;13.348;2023-01-06T12:17:46;14.88;;;9.20;;
7263;SDS011;3673;52.480;13.348;2023-01-06T12:20:18;13.88;;;8.57;;
7263;SDS011;3673;52.480;13.348;2023-01-06T12:22:53;13.52;;;9.65;;
7263;SDS011;3673;52.480;13.348;2023-01-06T12:25:25;12.93;;;7.50;;
7263;SDS011;3673;52.480;13.348;2023-01-06T12:27:58;12.95;;;7.57;;
7263;SDS011;3673;52.480;13.348;2023-01-06T12:30:30;12.38;;;7.53;;
7263;SDS011;3673;52.480;13.348;2023-01-06T12:33:04;12.85;;;7.78;;
7263;SDS011;3673;52.480;13.348;2023-01-06T12:35:38;10.00;;;6.15;;
7263;SDS011;3673;52.480;13.348;2023-01-06T12:38:12;8.27;;;6.28;;
7263;SDS011;3673;52.480;13.348;2023-01-06T12:40:53;7.78;;;5.93;;
7263;SDS011;3673;52.480;13.348;2023-01-06T12:43:27;10.50;;;6.57;;
7263;SDS011;3673;52.480;13.348;2023-01-06T12:45:59;10.82;;;6.22;;
7263;SDS011;3673;52.480;13.348;2023-01-06T12:48:34;11.93;;;6.45;;
7263;SDS011;3673;52.480;13.348;2023-01-06T12:51:06;10.05;;;6.28;;
7263;SDS011;3673;52.480;13.348;2023-01-06T12:53:40;6.50;;;4.95;;
7263;SDS011;3673;52.480;13.348;2023-01-06T12:56:18;8.45;;;5.05;;
7263;SDS011;3673;52.480;13.348;2023-01-06T12:58:59;7.45;;;4.82;;
7263;SDS011;3673;52.480;13.348;2023-01-06T13:01:41;6.53;;;5.03;;
7263;SDS011;3673;52.480;13.348;2023-01-06T13:07:35;9.40;;;4.43;;
7263;SDS011;3673;52.480;13.348;2023-01-06T13:10:14;6.80;;;4.40;;
7263;SDS011;3673;52.480;13.348;2023-01-06T13:13:01;8.10;;;3.60;;
7263;SDS011;3673;52.480;13.348;2023-01-06T13:15:57;5.57;;;3.38;;
7263;SDS011;3673;52.480;13.348;2023-01-06T13:18:30;6.10;;;3.20;;
7263;SDS011;3673;52.480;13.348;2023-01-06T13:21:04;6.15;;;2.95;;
7263;SDS011;3673;52.480;13.348;2023-01-06T13:23:37;4.43;;;3.05;;
7263;SDS011;3673;52.480;13.348;2023-01-06T13:26:25;5.47;;;2.70;;
7263;SDS011;3673;52.480;13.348;2023-01-06T13:29:11;5.45;;;2.55;;
7263;SDS011;3673;52.480;13.348;2023-01-06T13:32:01;3.47;;;2.70;;
7263;SDS011;3673;52.480;13.348;2023-01-06T13:38:13;3.35;;;2.40;;
7263;SDS011;3673;52.480;13.348;2023-01-06T13:40:59;2.85;;;1.77;;
7263;SDS011;3673;52.480;13.348;2023-01-06T13:43:30;3.42;;;1.98;;
7263;SDS011;3673;52.480;13.348;2023-01-06T13:45:59;1.95;;;1.60;;
7263;SDS011;3673;52.480;13.348;2023-01-06T13:48:31;1.88;;;1.55;;
7263;SDS011;3673;52.480;13.348;2023-01-06T13:51:02;2.00;;;1.70;;
7263;SDS011;3673;52.480;13.348;2023-01-06T13:53:34;4.78;;;1.50;;
7263;SDS011;3673;52.480;13.348;2023-01-06T14:01:49;3.83;;;2.15;;
7263;SDS011;3673;52.480;13.348;2023-01-06T14:07:12;2.25;;;1.35;;
7263;SDS011;3673;52.480;13.348;2023-01-06T14:09:45;1.70;;;1.33;;
7263;SDS011;3673;52.480;13.348;2023-01-06T14:12:15;1.10;;;1.00;;
7263;SDS011;3673;52.480;13.348;2023-01-06T14:14:55;4.10;;;2.15;;
7263;SDS011;3673;52.480;13.348;2023-01-06T14:17:26;3.05;;;1.45;;
7263;SDS011;3673;52.480;13.348;2023-01-06T14:19:56;1.42;;;1.30;;
7263;SDS011;3673;52.480;13.348;2023-01-06T14:22:24;1.27;;;0.88;;
7263;SDS011;3673;52.480;13.348;2023-01-06T14:24:54;2.53;;;1.60;;
7263;SDS011;3673;52.480;13.348;2023-01-06T14:33:02;1.48;;;0.90;;
7263;SDS011;3673;52.480;13.348;2023-01-06T14:36:00;1.10;;;0.90;;
7263;SDS011;3673;52.480;13.348;2023-01-06T14:38:32;2.50;;;1.45;;
7263;SDS011;3673;52.480;13.348;2023-01-06T14:41:12;3.35;;;1.90;;
7263;SDS011;3673;52.480;13.348;2023-01-06T14:43:49;5.47;;;2.63;;
7263;SDS011;3673;52.480;13.348;2023-01-06T14:46:21;2.22;;;1.13;;
7263;SDS011;3673;52.480;13.348;2023-01-06T14:48:54;3.28;;;1.20;;
7263;SDS011;3673;52.480;13.348;2023-01-06T14:51:26;1.20;;;1.10;;
7263;SDS011;3673;52.480;13.348;2023-01-06T14:53:59;4.70;;;1.50;;
7263;SDS011;3673;52.480;13.348;2023-01-06T14:56:29;3.35;;;1.80;;
7263;SDS011;3673;52.480;13.348;2023-01-06T14:59:05;3.25;;;1.73;;
7263;SDS011;3673;52.480;13.348;2023-01-06T15:01:39;3.58;;;1.30;;
7263;SDS011;3673;52.480;13.348;2023-01-06T15:04:18;4.10;;;1.58;;
7263;SDS011;3673;52.480;13.348;2023-01-06T15:06:56;2.85;;;1.35;;
7263;SDS011;3673;52.480;13.348;2023-01-06T15:09:26;3.30;;;1.65;;
7263;SDS011;3673;52.480;13.348;2023-01-06T15:11:53;5.22;;;1.83;;
7263;SDS011;3673;52.480;13.348;2023-01-06T15:14:27;2.67;;;1.75;;
7263;SDS011;3673;52.480;13.348;2023-01-06T15:16:58;3.05;;;1.90;;
7263;SDS011;3673;52.480;13.348;2023-01-06T15:19:28;2.03;;;1.40;;
7263;SDS011;3673;52.480;13.348;2023-01-06T15:21:55;3.10;;;1.38;;
7263;SDS011;3673;52.480;13.348;2023-01-06T15:24:24;2.47;;;1.52;;
7263;SDS011;3673;52.480;13.348;2023-01-06T15:27:01;2.17;;;1.35;;
7263;SDS011;3673;52.480;13.348;2023-01-06T15:29:30;1.58;;;1.40;;
7263;SDS011;3673;52.480;13.348;2023-01-06T15:31:59;4.25;;;1.08;;
7263;SDS011;3673;52.480;13.348;2023-01-06T15:34:29;3.20;;;1.27;;
7263;SDS011;3673;52.480;13.348;2023-01-06T15:37:00;2.22;;;1.55;;
7263;SDS011;3673;52.480;13.348;2023-01-06T15:39:30;5.63;;;1.40;;
7263;SDS011;3673;52.480;13.348;2023-01-06T15:41:58;1.83;;;1.35;;
7263;SDS011;3673;52.480;13.348;2023-01-06T15:44:30;4.00;;;1.20;;
7263;SDS011;3673;52.480;13.348;2023-01-06T15:47:05;1.83;;;1.30;;